YFH weather

Fort Hope Airport
Fort Hope, Ontario, Canada

Public forecast

Using degrees Celsius for public forecast. Weather courtesy of forecast.io.

METAR (pilot weather report)

Closest report is Lansdowne House Airport, 38.1 nm (70.5 km) N. Retrieved 2019/05/24 19:00 UTC (20 minutes ago):

CYLH 241900Z AUTO 15011G16KT 090V190 9SM CLR 17/M02 A3007 RMK SLP193 DENSITY ALT 1000FT

TAF (pilot weather forecast)

Closest forecast is Pickle Lake Airport, 86.5 nm (160.1 km) W. Retrieved 2019/05/24 20:00 UTC (0 seconds ago):

TAF CYPL 241938Z 2420/2502 16010G20KT P6SM FEW040 OVC240 FM242200 14012KT P6SM SCT020 OVC050 TEMPO 2422/2424 5SM -RA BR OVC020 FM250000 14012KT P6SM -RA OVC030 TEMPO 2500/2502 3SM -RA BR BKN007 OVC020 RMK NXT FCST WILL BE ISSUED AT 251245Z